sensor_id;sensor_type;location;lat;lon;timestamp;P1;durP1;ratioP1;P2;durP2;ratioP2
10387;SDS011;5240;51.128;4.566;2023-05-29T00:01:44;12.38;;;7.95;;
10387;SDS011;5240;51.128;4.566;2023-05-29T00:04:11;12.43;;;8.20;;
10387;SDS011;5240;51.128;4.566;2023-05-29T00:06:39;12.65;;;7.97;;
10387;SDS011;5240;51.128;4.566;2023-05-29T00:09:06;12.63;;;7.88;;
10387;SDS011;5240;51.128;4.566;2023-05-29T00:11:35;13.70;;;7.57;;
10387;SDS011;5240;51.128;4.566;2023-05-29T00:14:03;12.48;;;7.13;;
10387;SDS011;5240;51.128;4.566;2023-05-29T00:16:30;12.55;;;7.68;;
10387;SDS011;5240;51.128;4.566;2023-05-29T00:18:58;14.20;;;8.80;;
10387;SDS011;5240;51.128;4.566;2023-05-29T00:21:25;11.45;;;8.07;;
10387;SDS011;5240;51.128;4.566;2023-05-29T00:23:52;13.90;;;8.25;;
10387;SDS011;5240;51.128;4.566;2023-05-29T00:26:19;14.23;;;8.07;;
10387;SDS011;5240;51.128;4.566;2023-05-29T00:28:48;16.80;;;7.63;;
10387;SDS011;5240;51.128;4.566;2023-05-29T00:31:15;13.93;;;8.13;;
10387;SDS011;5240;51.128;4.566;2023-05-29T00:33:43;11.05;;;7.70;;
10387;SDS011;5240;51.128;4.566;2023-05-29T00:36:10;14.93;;;7.97;;
10387;SDS011;5240;51.128;4.566;2023-05-29T00:38:37;11.32;;;7.55;;
10387;SDS011;5240;51.128;4.566;2023-05-29T00:41:04;14.25;;;7.93;;
10387;SDS011;5240;51.128;4.566;2023-05-29T00:43:32;14.43;;;8.05;;
10387;SDS011;5240;51.128;4.566;2023-05-29T00:46:00;12.23;;;7.90;;
10387;SDS011;5240;51.128;4.566;2023-05-29T00:48:28;14.13;;;7.38;;
10387;SDS011;5240;51.128;4.566;2023-05-29T00:50:55;14.48;;;7.55;;
10387;SDS011;5240;51.128;4.566;2023-05-29T00:53:22;13.38;;;7.45;;
10387;SDS011;5240;51.128;4.566;2023-05-29T00:55:50;12.13;;;7.32;;
10387;SDS011;5240;51.128;4.566;2023-05-29T00:58:18;14.93;;;8.15;;
10387;SDS011;5240;51.128;4.566;2023-05-29T01:00:45;11.27;;;7.32;;
10387;SDS011;5240;51.128;4.566;2023-05-29T01:03:14;13.13;;;8.30;;
10387;SDS011;5240;51.128;4.566;2023-05-29T01:05:42;13.52;;;7.82;;
10387;SDS011;5240;51.128;4.566;2023-05-29T01:08:09;11.80;;;6.97;;
10387;SDS011;5240;51.128;4.566;2023-05-29T01:10:37;10.65;;;6.78;;
10387;SDS011;5240;51.128;4.566;2023-05-29T01:13:06;11.27;;;7.03;;
10387;SDS011;5240;51.128;4.566;2023-05-29T01:15:36;12.85;;;7.40;;
10387;SDS011;5240;51.128;4.566;2023-05-29T01:18:07;14.13;;;7.10;;
10387;SDS011;5240;51.128;4.566;2023-05-29T01:20:38;14.57;;;7.18;;
10387;SDS011;5240;51.128;4.566;2023-05-29T01:23:08;13.38;;;6.82;;
10387;SDS011;5240;51.128;4.566;2023-05-29T01:28:27;17.92;;;6.63;;
10387;SDS011;5240;51.128;4.566;2023-05-29T01:30:58;12.65;;;6.40;;
10387;SDS011;5240;51.128;4.566;2023-05-29T01:33:27;17.25;;;6.65;;
10387;SDS011;5240;51.128;4.566;2023-05-29T01:35:54;20.33;;;6.68;;
10387;SDS011;5240;51.128;4.566;2023-05-29T01:38:22;15.95;;;5.95;;
10387;SDS011;5240;51.128;4.566;2023-05-29T01:40:49;12.25;;;6.07;;
10387;SDS011;5240;51.128;4.566;2023-05-29T01:43:16;12.98;;;5.78;;
10387;SDS011;5240;51.128;4.566;2023-05-29T01:45:45;13.95;;;4.97;;
10387;SDS011;5240;51.128;4.566;2023-05-29T01:48:12;10.43;;;5.07;;
10387;SDS011;5240;51.128;4.566;2023-05-29T01:50:39;10.07;;;5.00;;
10387;SDS011;5240;51.128;4.566;2023-05-29T01:53:08;14.27;;;5.70;;
10387;SDS011;5240;51.128;4.566;2023-05-29T01:55:38;13.05;;;4.88;;
10387;SDS011;5240;51.128;4.566;2023-05-29T01:58:05;11.05;;;4.40;;
10387;SDS011;5240;51.128;4.566;2023-05-29T02:00:34;10.63;;;4.60;;
10387;SDS011;5240;51.128;4.566;2023-05-29T02:03:02;12.00;;;4.47;;
10387;SDS011;5240;51.128;4.566;2023-05-29T02:05:30;15.82;;;4.97;;
10387;SDS011;5240;51.128;4.566;2023-05-29T02:07:57;16.13;;;4.80;;
10387;SDS011;5240;51.128;4.566;2023-05-29T02:10:24;18.33;;;4.70;;
10387;SDS011;5240;51.128;4.566;2023-05-29T02:12:51;11.43;;;4.30;;
10387;SDS011;5240;51.128;4.566;2023-05-29T02:15:19;13.20;;;4.78;;
10387;SDS011;5240;51.128;4.566;2023-05-29T02:17:46;10.77;;;4.18;;
10387;SDS011;5240;51.128;4.566;2023-05-29T02:20:15;14.50;;;4.30;;
10387;SDS011;5240;51.128;4.566;2023-05-29T02:22:43;10.25;;;3.90;;
10387;SDS011;5240;51.128;4.566;2023-05-29T02:25:10;11.40;;;4.22;;
10387;SDS011;5240;51.128;4.566;2023-05-29T02:27:38;17.08;;;4.78;;
10387;SDS011;5240;51.128;4.566;2023-05-29T02:30:06;9.15;;;3.67;;
10387;SDS011;5240;51.128;4.566;2023-05-29T02:32:33;12.23;;;3.83;;
10387;SDS011;5240;51.128;4.566;2023-05-29T02:35:00;15.77;;;4.45;;
10387;SDS011;5240;51.128;4.566;2023-05-29T02:37:29;11.48;;;4.03;;
10387;SDS011;5240;51.128;4.566;2023-05-29T02:39:56;14.50;;;4.38;;
10387;SDS011;5240;51.128;4.566;2023-05-29T02:42:24;13.73;;;4.28;;
10387;SDS011;5240;51.128;4.566;2023-05-29T02:44:51;9.63;;;4.25;;
10387;SDS011;5240;51.128;4.566;2023-05-29T02:47:19;12.05;;;4.35;;
10387;SDS011;5240;51.128;4.566;2023-05-29T02:49:46;14.93;;;3.85;;
10387;SDS011;5240;51.128;4.566;2023-05-29T02:52:14;11.32;;;3.97;;
10387;SDS011;5240;51.128;4.566;2023-05-29T02:54:42;13.38;;;4.15;;
10387;SDS011;5240;51.128;4.566;2023-05-29T02:57:10;13.13;;;4.18;;
10387;SDS011;5240;51.128;4.566;2023-05-29T02:59:37;12.30;;;3.75;;
10387;SDS011;5240;51.128;4.566;2023-05-29T03:02:04;12.48;;;3.85;;
10387;SDS011;5240;51.128;4.566;2023-05-29T03:04:31;10.85;;;3.63;;
10387;SDS011;5240;51.128;4.566;2023-05-29T03:06:59;15.27;;;3.97;;
10387;SDS011;5240;51.128;4.566;2023-05-29T03:09:26;18.40;;;4.90;;
10387;SDS011;5240;51.128;4.566;2023-05-29T03:11:55;15.52;;;4.00;;
10387;SDS011;5240;51.128;4.566;2023-05-29T03:14:22;14.77;;;4.03;;
10387;SDS011;5240;51.128;4.566;2023-05-29T03:16:49;9.73;;;3.58;;
10387;SDS011;5240;51.128;4.566;2023-05-29T03:19:16;13.63;;;3.95;;
10387;SDS011;5240;51.128;4.566;2023-05-29T03:21:43;15.18;;;4.35;;
10387;SDS011;5240;51.128;4.566;2023-05-29T03:24:11;10.68;;;3.90;;
10387;SDS011;5240;51.128;4.566;2023-05-29T03:26:39;12.13;;;3.80;;
10387;SDS011;5240;51.128;4.566;2023-05-29T03:29:08;13.50;;;3.90;;
10387;SDS011;5240;51.128;4.566;2023-05-29T03:31:35;9.60;;;3.80;;
10387;SDS011;5240;51.128;4.566;2023-05-29T03:34:02;12.50;;;4.05;;
10387;SDS011;5240;51.128;4.566;2023-05-29T03:36:30;13.70;;;4.05;;
10387;SDS011;5240;51.128;4.566;2023-05-29T03:38:57;15.40;;;4.15;;
10387;SDS011;5240;51.128;4.566;2023-05-29T03:41:24;12.60;;;4.10;;
10387;SDS011;5240;51.128;4.566;2023-05-29T03:43:51;10.90;;;3.55;;
10387;SDS011;5240;51.128;4.566;2023-05-29T03:46:20;12.95;;;4.00;;
10387;SDS011;5240;51.128;4.566;2023-05-29T03:48:47;8.55;;;3.70;;
10387;SDS011;5240;51.128;4.566;2023-05-29T03:51:15;12.63;;;3.90;;
10387;SDS011;5240;51.128;4.566;2023-05-29T03:53:42;12.55;;;3.85;;
10387;SDS011;5240;51.128;4.566;2023-05-29T03:56:09;13.52;;;3.85;;
10387;SDS011;5240;51.128;4.566;2023-05-29T03:58:36;11.65;;;3.88;;
10387;SDS011;5240;51.128;4.566;2023-05-29T04:01:04;14.65;;;4.32;;
10387;SDS011;5240;51.128;4.566;2023-05-29T04:03:32;14.63;;;4.03;;
10387;SDS011;5240;51.128;4.566;2023-05-29T04:06:00;12.00;;;4.05;;
10387;SDS011;5240;51.128;4.566;2023-05-29T04:08:27;16.73;;;4.03;;
10387;SDS011;5240;51.128;4.566;2023-05-29T04:10:55;15.82;;;4.47;;
10387;SDS011;5240;51.128;4.566;2023-05-29T04:13:22;13.00;;;3.85;;
10387;SDS011;5240;51.128;4.566;2023-05-29T04:15:49;11.93;;;4.05;;
10387;SDS011;5240;51.128;4.566;2023-05-29T04:18:18;9.43;;;3.75;;
10387;SDS011;5240;51.128;4.566;2023-05-29T04:20:47;16.52;;;4.00;;
10387;SDS011;5240;51.128;4.566;2023-05-29T04:23:14;23.65;;;5.03;;
10387;SDS011;5240;51.128;4.566;2023-05-29T04:25:41;11.38;;;3.50;;
10387;SDS011;5240;51.128;4.566;2023-05-29T04:28:09;16.77;;;4.00;;
10387;SDS011;5240;51.128;4.566;2023-05-29T04:30:37;12.20;;;4.28;;
10387;SDS011;5240;51.128;4.566;2023-05-29T04:33:06;15.85;;;4.65;;
10387;SDS011;5240;51.128;4.566;2023-05-29T04:35:34;11.18;;;4.10;;
10387;SDS011;5240;51.128;4.566;2023-05-29T04:38:03;16.35;;;4.18;;
10387;SDS011;5240;51.128;4.566;2023-05-29T04:40:31;14.30;;;4.28;;
10387;SDS011;5240;51.128;4.566;2023-05-29T04:42:58;13.93;;;4.15;;
10387;SDS011;5240;51.128;4.566;2023-05-29T04:45:27;14.05;;;4.00;;
10387;SDS011;5240;51.128;4.566;2023-05-29T04:47:54;16.50;;;4.30;;
10387;SDS011;5240;51.128;4.566;2023-05-29T04:50:21;13.35;;;3.78;;
10387;SDS011;5240;51.128;4.566;2023-05-29T04:52:49;15.38;;;3.70;;
10387;SDS011;5240;51.128;4.566;2023-05-29T04:55:18;15.55;;;4.43;;
10387;SDS011;5240;51.128;4.566;2023-05-29T04:57:46;12.27;;;3.80;;
10387;SDS011;5240;51.128;4.566;2023-05-29T05:00:13;16.55;;;4.35;;
10387;SDS011;5240;51.128;4.566;2023-05-29T05:02:41;15.68;;;4.30;;
10387;SDS011;5240;51.128;4.566;2023-05-29T05:05:09;13.50;;;3.95;;
10387;SDS011;5240;51.128;4.566;2023-05-29T05:07:36;13.82;;;3.72;;
10387;SDS011;5240;51.128;4.566;2023-05-29T05:10:04;12.80;;;4.30;;
10387;SDS011;5240;51.128;4.566;2023-05-29T05:12:32;15.70;;;4.32;;
10387;SDS011;5240;51.128;4.566;2023-05-29T05:15:00;15.43;;;3.88;;
10387;SDS011;5240;51.128;4.566;2023-05-29T05:17:27;18.80;;;4.60;;
10387;SDS011;5240;51.128;4.566;2023-05-29T05:19:54;14.50;;;3.95;;
10387;SDS011;5240;51.128;4.566;2023-05-29T05:22:21;15.48;;;4.25;;
10387;SDS011;5240;51.128;4.566;2023-05-29T05:24:49;18.75;;;4.40;;
10387;SDS011;5240;51.128;4.566;2023-05-29T05:27:17;11.27;;;3.92;;
10387;SDS011;5240;51.128;4.566;2023-05-29T05:29:45;15.00;;;4.32;;
10387;SDS011;5240;51.128;4.566;2023-05-29T05:32:13;13.98;;;4.22;;
10387;SDS011;5240;51.128;4.566;2023-05-29T05:34:40;16.38;;;4.18;;
10387;SDS011;5240;51.128;4.566;2023-05-29T05:37:07;14.02;;;4.15;;
10387;SDS011;5240;51.128;4.566;2023-05-29T05:39:35;14.13;;;4.47;;
10387;SDS011;5240;51.128;4.566;2023-05-29T05:42:02;12.40;;;4.38;;
10387;SDS011;5240;51.128;4.566;2023-05-29T05:44:30;13.27;;;3.78;;
10387;SDS011;5240;51.128;4.566;2023-05-29T05:46:58;14.43;;;3.90;;
10387;SDS011;5240;51.128;4.566;2023-05-29T05:49:26;15.52;;;4.32;;
10387;SDS011;5240;51.128;4.566;2023-05-29T05:51:53;14.18;;;4.50;;
10387;SDS011;5240;51.128;4.566;2023-05-29T05:54:20;12.48;;;4.35;;
10387;SDS011;5240;51.128;4.566;2023-05-29T05:56:47;17.08;;;3.83;;
10387;SDS011;5240;51.128;4.566;2023-05-29T05:59:15;10.98;;;3.95;;
10387;SDS011;5240;51.128;4.566;2023-05-29T06:01:42;14.32;;;4.30;;
10387;SDS011;5240;51.128;4.566;2023-05-29T06:04:10;15.73;;;4.00;;
10387;SDS011;5240;51.128;4.566;2023-05-29T06:06:38;14.50;;;4.15;;
10387;SDS011;5240;51.128;4.566;2023-05-29T06:09:06;11.55;;;3.58;;
10387;SDS011;5240;51.128;4.566;2023-05-29T06:11:34;18.42;;;4.25;;
10387;SDS011;5240;51.128;4.566;2023-05-29T06:14:02;13.48;;;3.47;;
10387;SDS011;5240;51.128;4.566;2023-05-29T06:16:29;13.35;;;3.47;;
10387;SDS011;5240;51.128;4.566;2023-05-29T06:18:57;11.10;;;3.53;;
10387;SDS011;5240;51.128;4.566;2023-05-29T06:21:26;14.82;;;3.83;;
10387;SDS011;5240;51.128;4.566;2023-05-29T06:23:53;13.13;;;3.50;;
10387;SDS011;5240;51.128;4.566;2023-05-29T06:26:20;10.82;;;3.75;;
10387;SDS011;5240;51.128;4.566;2023-05-29T06:28:48;11.35;;;3.65;;
10387;SDS011;5240;51.128;4.566;2023-05-29T06:31:15;10.93;;;3.15;;
10387;SDS011;5240;51.128;4.566;2023-05-29T06:33:43;11.73;;;3.53;;
10387;SDS011;5240;51.128;4.566;2023-05-29T06:36:10;12.38;;;4.00;;
10387;SDS011;5240;51.128;4.566;2023-05-29T06:38:40;14.68;;;3.45;;
10387;SDS011;5240;51.128;4.566;2023-05-29T06:41:07;13.80;;;3.38;;
10387;SDS011;5240;51.128;4.566;2023-05-29T06:43:34;13.30;;;3.38;;
10387;SDS011;5240;51.128;4.566;2023-05-29T06:46:01;13.90;;;4.30;;
10387;SDS011;5240;51.128;4.566;2023-05-29T06:48:32;13.65;;;4.45;;
10387;SDS011;5240;51.128;4.566;2023-05-29T06:50:59;12.10;;;3.78;;
10387;SDS011;5240;51.128;4.566;2023-05-29T06:53:28;15.27;;;4.10;;
10387;SDS011;5240;51.128;4.566;2023-05-29T06:55:57;12.23;;;3.38;;
10387;SDS011;5240;51.128;4.566;2023-05-29T06:58:24;12.73;;;3.97;;
10387;SDS011;5240;51.128;4.566;2023-05-29T07:00:51;13.35;;;3.58;;
10387;SDS011;5240;51.128;4.566;2023-05-29T07:03:19;10.70;;;3.20;;
10387;SDS011;5240;51.128;4.566;2023-05-29T07:05:46;10.50;;;3.50;;
10387;SDS011;5240;51.128;4.566;2023-05-29T07:08:13;10.73;;;3.70;;
10387;SDS011;5240;51.128;4.566;2023-05-29T07:10:40;11.65;;;3.65;;
10387;SDS011;5240;51.128;4.566;2023-05-29T07:13:09;16.00;;;3.58;;
10387;SDS011;5240;51.128;4.566;2023-05-29T07:15:37;14.40;;;4.05;;
10387;SDS011;5240;51.128;4.566;2023-05-29T07:18:04;12.57;;;3.78;;
10387;SDS011;5240;51.128;4.566;2023-05-29T07:20:32;14.77;;;3.85;;
10387;SDS011;5240;51.128;4.566;2023-05-29T07:22:59;12.07;;;3.63;;
10387;SDS011;5240;51.128;4.566;2023-05-29T07:25:27;8.98;;;3.25;;
10387;SDS011;5240;51.128;4.566;2023-05-29T07:27:54;11.98;;;4.07;;
10387;SDS011;5240;51.128;4.566;2023-05-29T07:30:23;15.95;;;4.20;;
10387;SDS011;5240;51.128;4.566;2023-05-29T07:32:50;17.83;;;4.63;;
10387;SDS011;5240;51.128;4.566;2023-05-29T07:35:23;13.00;;;3.95;;
10387;SDS011;5240;51.128;4.566;2023-05-29T07:37:51;14.50;;;3.80;;
10387;SDS011;5240;51.128;4.566;2023-05-29T07:40:19;12.48;;;4.00;;
10387;SDS011;5240;51.128;4.566;2023-05-29T07:42:46;14.35;;;3.80;;
10387;SDS011;5240;51.128;4.566;2023-05-29T07:45:14;10.23;;;3.47;;
10387;SDS011;5240;51.128;4.566;2023-05-29T07:47:43;14.05;;;4.32;;
10387;SDS011;5240;51.128;4.566;2023-05-29T07:50:10;14.70;;;3.47;;
10387;SDS011;5240;51.128;4.566;2023-05-29T07:52:39;14.02;;;4.18;;
10387;SDS011;5240;51.128;4.566;2023-05-29T07:55:06;11.60;;;3.92;;
10387;SDS011;5240;51.128;4.566;2023-05-29T07:57:33;15.82;;;4.55;;
10387;SDS011;5240;51.128;4.566;2023-05-29T08:00:01;13.73;;;4.32;;
10387;SDS011;5240;51.128;4.566;2023-05-29T08:02:33;11.57;;;3.63;;
10387;SDS011;5240;51.128;4.566;2023-05-29T08:05:02;10.68;;;3.60;;
10387;SDS011;5240;51.128;4.566;2023-05-29T08:07:30;14.02;;;3.90;;
10387;SDS011;5240;51.128;4.566;2023-05-29T08:09:58;9.98;;;3.72;;
10387;SDS011;5240;51.128;4.566;2023-05-29T08:12:25;14.38;;;3.90;;
10387;SDS011;5240;51.128;4.566;2023-05-29T08:14:52;13.80;;;4.03;;
10387;SDS011;5240;51.128;4.566;2023-05-29T08:17:20;15.02;;;3.70;;
10387;SDS011;5240;51.128;4.566;2023-05-29T08:19:47;10.77;;;3.95;;
10387;SDS011;5240;51.128;4.566;2023-05-29T08:22:16;13.23;;;3.80;;
10387;SDS011;5240;51.128;4.566;2023-05-29T08:24:43;14.63;;;3.97;;
10387;SDS011;5240;51.128;4.566;2023-05-29T08:27:10;8.55;;;3.78;;
10387;SDS011;5240;51.128;4.566;2023-05-29T08:29:38;10.98;;;3.40;;
10387;SDS011;5240;51.128;4.566;2023-05-29T08:32:05;12.77;;;3.67;;
10387;SDS011;5240;51.128;4.566;2023-05-29T08:34:32;9.35;;;3.40;;
10387;SDS011;5240;51.128;4.566;2023-05-29T08:37:00;11.82;;;3.65;;
10387;SDS011;5240;51.128;4.566;2023-05-29T08:39:29;9.60;;;2.95;;
10387;SDS011;5240;51.128;4.566;2023-05-29T08:41:59;9.65;;;3.63;;
10387;SDS011;5240;51.128;4.566;2023-05-29T08:44:29;11.13;;;3.60;;
10387;SDS011;5240;51.128;4.566;2023-05-29T08:46:57;10.93;;;3.15;;
10387;SDS011;5240;51.128;4.566;2023-05-29T08:49:26;10.13;;;3.30;;
10387;SDS011;5240;51.128;4.566;2023-05-29T08:51:57;9.07;;;3.33;;
10387;SDS011;5240;51.128;4.566;2023-05-29T08:54:24;11.15;;;3.60;;
10387;SDS011;5240;51.128;4.566;2023-05-29T08:56:53;14.32;;;3.55;;
10387;SDS011;5240;51.128;4.566;2023-05-29T08:59:22;15.82;;;4.05;;
10387;SDS011;5240;51.128;4.566;2023-05-29T09:01:50;14.75;;;3.90;;
10387;SDS011;5240;51.128;4.566;2023-05-29T09:04:17;9.90;;;3.17;;
10387;SDS011;5240;51.128;4.566;2023-05-29T09:06:45;12.48;;;3.40;;
10387;SDS011;5240;51.128;4.566;2023-05-29T09:09:12;11.27;;;3.47;;
10387;SDS011;5240;51.128;4.566;2023-05-29T09:11:39;11.45;;;3.65;;
10387;SDS011;5240;51.128;4.566;2023-05-29T09:14:16;10.35;;;3.22;;
10387;SDS011;5240;51.128;4.566;2023-05-29T09:16:59;11.77;;;3.65;;
10387;SDS011;5240;51.128;4.566;2023-05-29T09:19:27;25.00;;;4.20;;
10387;SDS011;5240;51.128;4.566;2023-05-29T09:22:00;9.57;;;3.13;;
10387;SDS011;5240;51.128;4.566;2023-05-29T09:24:30;11.63;;;3.42;;
10387;SDS011;5240;51.128;4.566;2023-05-29T09:26:59;9.55;;;3.83;;
10387;SDS011;5240;51.128;4.566;2023-05-29T09:29:28;13.05;;;3.80;;
10387;SDS011;5240;51.128;4.566;2023-05-29T09:31:57;15.60;;;4.35;;
10387;SDS011;5240;51.128;4.566;2023-05-29T09:34:25;17.23;;;4.55;;
10387;SDS011;5240;51.128;4.566;2023-05-29T09:36:53;12.25;;;3.40;;
10387;SDS011;5240;51.128;4.566;2023-05-29T09:39:32;10.02;;;3.10;;
10387;SDS011;5240;51.128;4.566;2023-05-29T09:42:00;11.15;;;3.33;;
10387;SDS011;5240;51.128;4.566;2023-05-29T09:44:29;9.70;;;3.28;;
10387;SDS011;5240;51.128;4.566;2023-05-29T09:46:57;11.70;;;3.28;;
10387;SDS011;5240;51.128;4.566;2023-05-29T09:49:25;8.40;;;3.10;;
10387;SDS011;5240;51.128;4.566;2023-05-29T09:51:53;8.38;;;3.25;;
10387;SDS011;5240;51.128;4.566;2023-05-29T09:54:20;8.88;;;3.50;;
10387;SDS011;5240;51.128;4.566;2023-05-29T09:56:48;7.68;;;2.80;;
10387;SDS011;5240;51.128;4.566;2023-05-29T09:59:15;10.07;;;3.70;;
10387;SDS011;5240;51.128;4.566;2023-05-29T10:01:44;11.10;;;3.13;;
10387;SDS011;5240;51.128;4.566;2023-05-29T10:04:11;9.90;;;3.00;;
10387;SDS011;5240;51.128;4.566;2023-05-29T10:06:41;9.15;;;3.25;;
10387;SDS011;5240;51.128;4.566;2023-05-29T10:09:09;8.65;;;3.25;;
10387;SDS011;5240;51.128;4.566;2023-05-29T10:11:38;9.35;;;3.08;;
10387;SDS011;5240;51.128;4.566;2023-05-29T10:14:06;8.15;;;2.90;;
10387;SDS011;5240;51.128;4.566;2023-05-29T10:16:36;7.22;;;2.85;;
10387;SDS011;5240;51.128;4.566;2023-05-29T10:19:10;14.02;;;3.78;;
10387;SDS011;5240;51.128;4.566;2023-05-29T10:21:39;12.25;;;3.25;;
10387;SDS011;5240;51.128;4.566;2023-05-29T10:24:09;11.23;;;3.67;;
10387;SDS011;5240;51.128;4.566;2023-05-29T10:26:39;10.80;;;3.45;;
10387;SDS011;5240;51.128;4.566;2023-05-29T10:29:08;7.68;;;3.10;;
10387;SDS011;5240;51.128;4.566;2023-05-29T10:31:39;9.65;;;3.33;;
10387;SDS011;5240;51.128;4.566;2023-05-29T10:34:14;8.45;;;3.20;;
10387;SDS011;5240;51.128;4.566;2023-05-29T10:36:47;9.98;;;3.35;;
10387;SDS011;5240;51.128;4.566;2023-05-29T10:39:16;8.55;;;3.53;;
10387;SDS011;5240;51.128;4.566;2023-05-29T10:41:44;13.02;;;3.90;;
10387;SDS011;5240;51.128;4.566;2023-05-29T10:47:04;6.78;;;2.92;;
10387;SDS011;5240;51.128;4.566;2023-05-29T10:49:35;9.68;;;3.47;;
10387;SDS011;5240;51.128;4.566;2023-05-29T10:52:03;13.93;;;3.40;;
10387;SDS011;5240;51.128;4.566;2023-05-29T10:54:39;7.10;;;3.40;;
10387;SDS011;5240;51.128;4.566;2023-05-29T10:57:07;7.53;;;3.10;;
10387;SDS011;5240;51.128;4.566;2023-05-29T10:59:35;9.77;;;3.25;;
10387;SDS011;5240;51.128;4.566;2023-05-29T11:02:03;8.77;;;3.35;;
10387;SDS011;5240;51.128;4.566;2023-05-29T11:04:31;9.48;;;3.60;;
10387;SDS011;5240;51.128;4.566;2023-05-29T11:07:00;8.05;;;3.50;;
10387;SDS011;5240;51.128;4.566;2023-05-29T11:09:31;7.57;;;3.28;;
10387;SDS011;5240;51.128;4.566;2023-05-29T11:12:16;12.43;;;4.20;;
10387;SDS011;5240;51.128;4.566;2023-05-29T11:15:02;8.25;;;3.00;;
10387;SDS011;5240;51.128;4.566;2023-05-29T11:17:43;7.45;;;3.28;;
10387;SDS011;5240;51.128;4.566;2023-05-29T11:20:24;8.68;;;3.22;;
10387;SDS011;5240;51.128;4.566;2023-05-29T11:23:00;9.25;;;3.72;;
10387;SDS011;5240;51.128;4.566;2023-05-29T11:25:28;9.48;;;3.40;;
10387;SDS011;5240;51.128;4.566;2023-05-29T11:27:58;10.07;;;3.30;;
10387;SDS011;5240;51.128;4.566;2023-05-29T11:30:25;10.25;;;3.22;;
10387;SDS011;5240;51.128;4.566;2023-05-29T11:32:52;10.50;;;3.75;;
10387;SDS011;5240;51.128;4.566;2023-05-29T11:35:21;9.55;;;3.45;;
10387;SDS011;5240;51.128;4.566;2023-05-29T11:37:49;10.75;;;3.40;;
10387;SDS011;5240;51.128;4.566;2023-05-29T11:40:18;8.63;;;3.78;;
10387;SDS011;5240;51.128;4.566;2023-05-29T11:42:45;10.10;;;3.40;;
10387;SDS011;5240;51.128;4.566;2023-05-29T11:45:14;10.75;;;3.75;;
10387;SDS011;5240;51.128;4.566;2023-05-29T11:47:51;5.78;;;2.92;;
10387;SDS011;5240;51.128;4.566;2023-05-29T11:50:19;11.95;;;3.03;;
10387;SDS011;5240;51.128;4.566;2023-05-29T11:52:46;8.02;;;3.65;;
10387;SDS011;5240;51.128;4.566;2023-05-29T11:55:14;8.20;;;3.40;;
10387;SDS011;5240;51.128;4.566;2023-05-29T11:57:43;7.35;;;3.13;;
10387;SDS011;5240;51.128;4.566;2023-05-29T12:00:12;9.90;;;3.50;;
10387;SDS011;5240;51.128;4.566;2023-05-29T12:02:40;8.73;;;3.50;;
10387;SDS011;5240;51.128;4.566;2023-05-29T12:05:09;6.80;;;3.17;;
10387;SDS011;5240;51.128;4.566;2023-05-29T12:07:46;8.90;;;3.75;;
10387;SDS011;5240;51.128;4.566;2023-05-29T12:10:13;6.82;;;3.08;;
10387;SDS011;5240;51.128;4.566;2023-05-29T12:12:46;11.63;;;3.88;;
10387;SDS011;5240;51.128;4.566;2023-05-29T12:15:13;9.32;;;3.70;;
10387;SDS011;5240;51.128;4.566;2023-05-29T12:17:41;8.60;;;3.35;;
10387;SDS011;5240;51.128;4.566;2023-05-29T12:20:09;8.77;;;3.13;;
10387;SDS011;5240;51.128;4.566;2023-05-29T12:22:38;7.72;;;3.75;;
10387;SDS011;5240;51.128;4.566;2023-05-29T12:25:06;7.30;;;3.22;;
10387;SDS011;5240;51.128;4.566;2023-05-29T12:27:34;12.77;;;3.42;;
10387;SDS011;5240;51.128;4.566;2023-05-29T12:30:08;6.72;;;3.05;;
10387;SDS011;5240;51.128;4.566;2023-05-29T12:32:37;9.50;;;3.20;;
10387;SDS011;5240;51.128;4.566;2023-05-29T12:35:12;9.50;;;3.50;;
10387;SDS011;5240;51.128;4.566;2023-05-29T12:37:46;9.20;;;3.40;;
10387;SDS011;5240;51.128;4.566;2023-05-29T12:40:15;11.93;;;3.60;;
10387;SDS011;5240;51.128;4.566;2023-05-29T12:42:42;21.75;;;5.38;;
10387;SDS011;5240;51.128;4.566;2023-05-29T12:45:11;7.93;;;3.40;;
10387;SDS011;5240;51.128;4.566;2023-05-29T12:47:44;7.55;;;3.40;;
10387;SDS011;5240;51.128;4.566;2023-05-29T12:50:24;8.20;;;3.38;;
10387;SDS011;5240;51.128;4.566;2023-05-29T12:52:58;8.32;;;2.90;;
10387;SDS011;5240;51.128;4.566;2023-05-29T12:55:25;6.47;;;3.13;;
10387;SDS011;5240;51.128;4.566;2023-05-29T12:57:53;9.07;;;3.30;;
10387;SDS011;5240;51.128;4.566;2023-05-29T13:00:22;10.57;;;3.47;;
10387;SDS011;5240;51.128;4.566;2023-05-29T13:02:49;14.13;;;4.07;;
10387;SDS011;5240;51.128;4.566;2023-05-29T13:05:17;7.30;;;3.08;;
10387;SDS011;5240;51.128;4.566;2023-05-29T13:07:47;7.00;;;3.20;;
10387;SDS011;5240;51.128;4.566;2023-05-29T13:10:15;8.25;;;3.50;;
10387;SDS011;5240;51.128;4.566;2023-05-29T13:12:43;6.90;;;3.10;;
10387;SDS011;5240;51.128;4.566;2023-05-29T13:15:11;11.10;;;3.30;;
10387;SDS011;5240;51.128;4.566;2023-05-29T13:17:40;9.32;;;3.58;;
10387;SDS011;5240;51.128;4.566;2023-05-29T13:20:08;10.77;;;3.65;;
10387;SDS011;5240;51.128;4.566;2023-05-29T13:22:36;8.50;;;3.53;;
10387;SDS011;5240;51.128;4.566;2023-05-29T13:25:04;7.60;;;3.45;;
10387;SDS011;5240;51.128;4.566;2023-05-29T13:27:32;9.32;;;3.30;;
10387;SDS011;5240;51.128;4.566;2023-05-29T13:30:00;7.32;;;3.10;;
10387;SDS011;5240;51.128;4.566;2023-05-29T13:32:28;9.05;;;3.30;;
10387;SDS011;5240;51.128;4.566;2023-05-29T13:34:57;11.10;;;3.35;;
10387;SDS011;5240;51.128;4.566;2023-05-29T13:37:24;8.15;;;3.20;;
10387;SDS011;5240;51.128;4.566;2023-05-29T13:39:52;5.63;;;3.33;;
10387;SDS011;5240;51.128;4.566;2023-05-29T13:42:20;8.48;;;3.20;;
10387;SDS011;5240;51.128;4.566;2023-05-29T13:44:48;8.45;;;3.03;;
10387;SDS011;5240;51.128;4.566;2023-05-29T13:47:15;8.30;;;3.63;;
10387;SDS011;5240;51.128;4.566;2023-05-29T13:49:43;8.70;;;3.40;;
10387;SDS011;5240;51.128;4.566;2023-05-29T13:52:11;10.05;;;3.40;;
10387;SDS011;5240;51.128;4.566;2023-05-29T13:54:39;6.72;;;3.13;;
10387;SDS011;5240;51.128;4.566;2023-05-29T13:57:06;6.57;;;2.75;;
10387;SDS011;5240;51.128;4.566;2023-05-29T13:59:34;6.22;;;2.88;;
10387;SDS011;5240;51.128;4.566;2023-05-29T14:02:01;7.45;;;2.75;;
10387;SDS011;5240;51.128;4.566;2023-05-29T14:04:29;7.82;;;2.75;;
10387;SDS011;5240;51.128;4.566;2023-05-29T14:06:56;8.85;;;3.10;;
10387;SDS011;5240;51.128;4.566;2023-05-29T14:09:25;9.13;;;3.33;;
10387;SDS011;5240;51.128;4.566;2023-05-29T14:11:53;10.05;;;3.13;;
10387;SDS011;5240;51.128;4.566;2023-05-29T14:14:21;7.30;;;2.85;;
10387;SDS011;5240;51.128;4.566;2023-05-29T14:16:49;10.85;;;3.30;;
10387;SDS011;5240;51.128;4.566;2023-05-29T14:19:16;6.13;;;2.95;;
10387;SDS011;5240;51.128;4.566;2023-05-29T14:21:44;7.68;;;3.53;;
10387;SDS011;5240;51.128;4.566;2023-05-29T14:24:11;7.32;;;3.25;;
10387;SDS011;5240;51.128;4.566;2023-05-29T14:26:42;11.70;;;3.33;;
10387;SDS011;5240;51.128;4.566;2023-05-29T14:29:12;7.55;;;3.25;;
10387;SDS011;5240;51.128;4.566;2023-05-29T14:31:39;7.47;;;3.20;;
10387;SDS011;5240;51.128;4.566;2023-05-29T14:34:07;9.95;;;3.58;;
10387;SDS011;5240;51.128;4.566;2023-05-29T14:36:34;7.25;;;3.20;;
10387;SDS011;5240;51.128;4.566;2023-05-29T14:39:02;7.72;;;3.13;;
10387;SDS011;5240;51.128;4.566;2023-05-29T14:41:30;8.63;;;3.67;;
10387;SDS011;5240;51.128;4.566;2023-05-29T14:44:00;9.45;;;3.25;;
10387;SDS011;5240;51.128;4.566;2023-05-29T14:46:27;6.75;;;2.72;;
10387;SDS011;5240;51.128;4.566;2023-05-29T14:48:56;8.07;;;2.90;;
10387;SDS011;5240;51.128;4.566;2023-05-29T14:51:24;10.38;;;3.00;;
10387;SDS011;5240;51.128;4.566;2023-05-29T14:53:51;8.32;;;3.00;;
10387;SDS011;5240;51.128;4.566;2023-05-29T14:56:18;8.90;;;3.55;;
10387;SDS011;5240;51.128;4.566;2023-05-29T14:58:46;8.38;;;3.10;;
10387;SDS011;5240;51.128;4.566;2023-05-29T15:01:16;6.05;;;2.95;;
10387;SDS011;5240;51.128;4.566;2023-05-29T15:03:43;8.77;;;3.50;;
10387;SDS011;5240;51.128;4.566;2023-05-29T15:06:10;6.55;;;3.20;;